sensor_id;sensor_type;location;lat;lon;timestamp;pressure;altitude;pressure_sealevel;temperature;humidity
71299;BME280;59083;47.974;21.722;2022-08-01T00:00:24;100139.06;;;18.37;97.89
71299;BME280;59083;47.974;21.722;2022-08-01T00:03:26;100145.28;;;18.38;98.04
71299;BME280;59083;47.974;21.722;2022-08-01T00:06:27;100137.94;;;18.33;97.58
71299;BME280;59083;47.974;21.722;2022-08-01T00:09:28;100139.06;;;18.37;98.00
71299;BME280;59083;47.974;21.722;2022-08-01T00:12:29;100136.94;;;18.39;97.73
71299;BME280;59083;47.974;21.722;2022-08-01T00:15:31;100143.97;;;18.40;97.29
71299;BME280;59083;47.974;21.722;2022-08-01T00:18:33;100141.84;;;18.42;97.12
71299;BME280;59083;47.974;21.722;2022-08-01T00:21:36;100154.75;;;18.40;96.67
71299;BME280;59083;47.974;21.722;2022-08-01T00:24:37;100141.25;;;18.40;96.50
71299;BME280;59083;47.974;21.722;2022-08-01T00:27:39;100151.00;;;18.41;96.70
71299;BME280;59083;47.974;21.722;2022-08-01T00:30:40;100142.44;;;18.44;96.84
71299;BME280;59083;47.974;21.722;2022-08-01T00:33:41;100140.78;;;18.43;96.62
71299;BME280;59083;47.974;21.722;2022-08-01T00:36:42;100137.41;;;18.36;96.61
71299;BME280;59083;47.974;21.722;2022-08-01T00:39:44;100143.88;;;18.35;96.22
71299;BME280;59083;47.974;21.722;2022-08-01T00:42:45;100145.53;;;18.36;97.02
71299;BME280;59083;47.974;21.722;2022-08-01T00:45:46;100147.62;;;18.34;96.62
71299;BME280;59083;47.974;21.722;2022-08-01T00:48:48;100142.16;;;18.29;96.88
71299;BME280;59083;47.974;21.722;2022-08-01T00:51:49;100148.72;;;18.33;97.05
71299;BME280;59083;47.974;21.722;2022-08-01T00:54:51;100146.56;;;18.35;96.89
71299;BME280;59083;47.974;21.722;2022-08-01T00:57:52;100145.28;;;18.38;96.59
71299;BME280;59083;47.974;21.722;2022-08-01T01:00:53;100153.69;;;18.41;96.64
71299;BME280;59083;47.974;21.722;2022-08-01T01:03:55;100151.00;;;18.41;96.74
71299;BME280;59083;47.974;21.722;2022-08-01T01:07:17;100151.50;;;18.38;96.89
71299;BME280;59083;47.974;21.722;2022-08-01T01:10:48;100159.50;;;18.33;96.41
71299;BME280;59083;47.974;21.722;2022-08-01T01:14:00;100159.00;;;18.36;96.92
71299;BME280;59083;47.974;21.722;2022-08-01T01:17:06;100160.34;;;18.34;96.82
71299;BME280;59083;47.974;21.722;2022-08-01T01:20:12;100152.63;;;18.26;96.45
71299;BME280;59083;47.974;21.722;2022-08-01T01:26:29;100161.09;;;18.17;96.27
71299;BME280;59083;47.974;21.722;2022-08-01T01:29:41;100156.53;;;18.18;96.09
71299;BME280;59083;47.974;21.722;2022-08-01T01:32:46;100160.78;;;18.14;96.01
71299;BME280;59083;47.974;21.722;2022-08-01T01:35:59;100155.37;;;18.14;96.07
71299;BME280;59083;47.974;21.722;2022-08-01T01:39:01;100163.97;;;18.11;95.86
71299;BME280;59083;47.974;21.722;2022-08-01T01:42:04;100163.84;;;18.06;95.86
71299;BME280;59083;47.974;21.722;2022-08-01T01:45:07;100168.59;;;17.99;95.56
71299;BME280;59083;47.974;21.722;2022-08-01T01:48:16;100166.59;;;17.94;95.34
71299;BME280;59083;47.974;21.722;2022-08-01T01:51:18;100164.62;;;17.90;95.02
71299;BME280;59083;47.974;21.722;2022-08-01T01:54:23;100174.75;;;17.83;94.99
71299;BME280;59083;47.974;21.722;2022-08-01T01:57:25;100176.88;;;17.81;95.04
71299;BME280;59083;47.974;21.722;2022-08-01T02:00:29;100174.75;;;17.83;95.44
71299;BME280;59083;47.974;21.722;2022-08-01T02:03:32;100173.25;;;17.75;95.79
71299;BME280;59083;47.974;21.722;2022-08-01T02:06:37;100170.31;;;17.77;96.45
71299;BME280;59083;47.974;21.722;2022-08-01T02:09:42;100173.97;;;17.70;96.26
71299;BME280;59083;47.974;21.722;2022-08-01T02:12:44;100173.28;;;17.63;96.53
71299;BME280;59083;47.974;21.722;2022-08-01T02:15:46;100172.22;;;17.64;96.46
71299;BME280;59083;47.974;21.722;2022-08-01T02:18:48;100167.91;;;17.63;96.86
71299;BME280;59083;47.974;21.722;2022-08-01T02:28:59;100157.44;;;17.55;96.22
71299;BME280;59083;47.974;21.722;2022-08-01T02:32:04;100162.37;;;17.58;96.11
71299;BME280;59083;47.974;21.722;2022-08-01T02:35:09;100157.44;;;17.55;96.01
71299;BME280;59083;47.974;21.722;2022-08-01T02:38:13;100163.19;;;17.59;95.82
71299;BME280;59083;47.974;21.722;2022-08-01T02:41:19;100165.28;;;17.57;95.56
71299;BME280;59083;47.974;21.722;2022-08-01T02:44:28;100158.63;;;17.59;95.97
71299;BME280;59083;47.974;21.722;2022-08-01T02:47:31;100166.25;;;17.62;95.76
71299;BME280;59083;47.974;21.722;2022-08-01T02:50:34;100156.88;;;17.65;95.93
71299;BME280;59083;47.974;21.722;2022-08-01T02:53:37;100161.69;;;17.63;95.59
71299;BME280;59083;47.974;21.722;2022-08-01T02:56:42;100164.97;;;17.65;95.91
71299;BME280;59083;47.974;21.722;2022-08-01T02:59:45;100158.16;;;17.62;95.54
71299;BME280;59083;47.974;21.722;2022-08-01T03:02:49;100153.47;;;17.69;96.23
71299;BME280;59083;47.974;21.722;2022-08-01T03:05:52;100153.47;;;17.69;95.52
71299;BME280;59083;47.974;21.722;2022-08-01T03:08:55;100158.84;;;17.69;95.48
71299;BME280;59083;47.974;21.722;2022-08-01T03:12:00;100155.09;;;17.70;95.20
71299;BME280;59083;47.974;21.722;2022-08-01T03:15:03;100161.78;;;17.68;95.36
71299;BME280;59083;47.974;21.722;2022-08-01T03:18:07;100152.97;;;17.72;95.71
71299;BME280;59083;47.974;21.722;2022-08-01T03:21:11;100144.66;;;17.74;95.78
71299;BME280;59083;47.974;21.722;2022-08-01T03:24:14;100144.88;;;17.72;95.69
71299;BME280;59083;47.974;21.722;2022-08-01T03:27:18;100151.69;;;17.75;95.52
71299;BME280;59083;47.974;21.722;2022-08-01T03:30:24;100154.16;;;17.77;95.05
71299;BME280;59083;47.974;21.722;2022-08-01T03:33:26;100152.97;;;17.72;94.85
71299;BME280;59083;47.974;21.722;2022-08-01T03:36:28;100157.91;;;17.75;95.07
71299;BME280;59083;47.974;21.722;2022-08-01T03:39:37;100150.88;;;17.74;94.26
71299;BME280;59083;47.974;21.722;2022-08-01T03:42:46;100151.69;;;17.75;93.91
71299;BME280;59083;47.974;21.722;2022-08-01T03:45:50;100154.63;;;17.73;93.60
71299;BME280;59083;47.974;21.722;2022-08-01T03:48:54;100159.69;;;17.70;93.48
71299;BME280;59083;47.974;21.722;2022-08-01T03:51:57;100166.34;;;17.67;93.70
71299;BME280;59083;47.974;21.722;2022-08-01T03:55:04;100169.63;;;17.69;93.75
71299;BME280;59083;47.974;21.722;2022-08-01T03:58:09;100168.91;;;17.74;93.42
71299;BME280;59083;47.974;21.722;2022-08-01T04:01:11;100167.62;;;17.77;93.08
71299;BME280;59083;47.974;21.722;2022-08-01T04:04:13;100170.66;;;17.80;92.85
71299;BME280;59083;47.974;21.722;2022-08-01T04:07:28;100171.38;;;17.75;92.54
71299;BME280;59083;47.974;21.722;2022-08-01T04:10:30;100179.47;;;17.75;92.70
71299;BME280;59083;47.974;21.722;2022-08-01T04:13:31;100184.13;;;17.80;93.13
71299;BME280;59083;47.974;21.722;2022-08-01T04:16:33;100187.16;;;17.84;92.68
71299;BME280;59083;47.974;21.722;2022-08-01T04:19:35;100189.28;;;17.82;92.13
71299;BME280;59083;47.974;21.722;2022-08-01T04:22:36;100178.84;;;17.85;91.94
71299;BME280;59083;47.974;21.722;2022-08-01T04:25:40;100181.41;;;17.92;92.02
71299;BME280;59083;47.974;21.722;2022-08-01T04:28:44;100177.75;;;17.98;91.75
71299;BME280;59083;47.974;21.722;2022-08-01T04:31:48;100177.25;;;18.01;91.10
71299;BME280;59083;47.974;21.722;2022-08-01T04:34:50;100182.16;;;18.04;91.08
71299;BME280;59083;47.974;21.722;2022-08-01T04:37:57;100186.00;;;18.08;90.47
71299;BME280;59083;47.974;21.722;2022-08-01T04:41:00;100177.94;;;18.08;90.14
71299;BME280;59083;47.974;21.722;2022-08-01T04:44:04;100180.25;;;18.16;90.47
71299;BME280;59083;47.974;21.722;2022-08-01T04:47:06;100179.75;;;18.19;90.25
71299;BME280;59083;47.974;21.722;2022-08-01T04:50:09;100183.50;;;18.18;89.74
71299;BME280;59083;47.974;21.722;2022-08-01T04:53:18;100182.69;;;18.17;89.60
71299;BME280;59083;47.974;21.722;2022-08-01T04:56:22;100184.00;;;18.15;89.65
71299;BME280;59083;47.974;21.722;2022-08-01T04:59:24;100189.41;;;18.15;89.58
71299;BME280;59083;47.974;21.722;2022-08-01T05:02:40;100190.44;;;18.14;89.74
71299;BME280;59083;47.974;21.722;2022-08-01T05:05:41;100188.81;;;18.13;89.85
71299;BME280;59083;47.974;21.722;2022-08-01T05:08:42;100189.84;;;18.12;90.06
71299;BME280;59083;47.974;21.722;2022-08-01T05:11:44;100180.47;;;18.14;89.88
71299;BME280;59083;47.974;21.722;2022-08-01T05:14:45;100188.06;;;18.17;89.56
71299;BME280;59083;47.974;21.722;2022-08-01T05:17:47;100180.47;;;18.14;89.58
71299;BME280;59083;47.974;21.722;2022-08-01T05:20:48;100182.34;;;18.14;89.74
71299;BME280;59083;47.974;21.722;2022-08-01T05:23:49;100184.00;;;18.15;90.67
71299;BME280;59083;47.974;21.722;2022-08-01T05:26:50;100182.44;;;18.19;90.36
71299;BME280;59083;47.974;21.722;2022-08-01T05:29:52;100193.22;;;18.19;89.97
71299;BME280;59083;47.974;21.722;2022-08-01T05:32:53;100193.56;;;18.23;90.25
71299;BME280;59083;47.974;21.722;2022-08-01T05:35:54;100193.31;;;18.24;90.56
71299;BME280;59083;47.974;21.722;2022-08-01T05:38:55;100198.16;;;18.22;90.50
71299;BME280;59083;47.974;21.722;2022-08-01T05:41:57;100195.78;;;18.26;90.53
71299;BME280;59083;47.974;21.722;2022-08-01T05:44:58;100200.69;;;18.29;90.56
71299;BME280;59083;47.974;21.722;2022-08-01T05:47:59;100206.09;;;18.29;90.01
71299;BME280;59083;47.974;21.722;2022-08-01T05:51:00;100210.19;;;18.31;90.55
71299;BME280;59083;47.974;21.722;2022-08-01T05:54:02;100208.53;;;18.30;90.72
71299;BME280;59083;47.974;21.722;2022-08-01T05:57:03;100217.22;;;18.32;90.13
71299;BME280;59083;47.974;21.722;2022-08-01T06:00:05;100217.91;;;18.39;90.14
71299;BME280;59083;47.974;21.722;2022-08-01T06:03:12;100209.06;;;18.44;90.06
71299;BME280;59083;47.974;21.722;2022-08-01T06:06:15;100210.72;;;18.45;89.77
71299;BME280;59083;47.974;21.722;2022-08-01T06:09:16;100214.78;;;18.47;89.63
71299;BME280;59083;47.974;21.722;2022-08-01T06:12:17;100216.66;;;18.47;89.49
71299;BME280;59083;47.974;21.722;2022-08-01T06:15:19;100214.78;;;18.47;90.22
71299;BME280;59083;47.974;21.722;2022-08-01T06:18:20;100227.81;;;18.50;89.79
71299;BME280;59083;47.974;21.722;2022-08-01T06:21:22;100225.00;;;18.45;89.60
71299;BME280;59083;47.974;21.722;2022-08-01T06:24:23;100231.00;;;18.47;89.51
71299;BME280;59083;47.974;21.722;2022-08-01T06:27:25;100230.03;;;18.53;89.18
71299;BME280;59083;47.974;21.722;2022-08-01T06:30:27;100230.37;;;18.57;88.70
71299;BME280;59083;47.974;21.722;2022-08-01T06:33:28;100231.69;;;18.54;88.26
71299;BME280;59083;47.974;21.722;2022-08-01T06:36:29;100233.34;;;18.55;88.03
71299;BME280;59083;47.974;21.722;2022-08-01T06:39:30;100235.66;;;18.52;88.24
71299;BME280;59083;47.974;21.722;2022-08-01T06:42:33;100246.22;;;18.53;88.00
71299;BME280;59083;47.974;21.722;2022-08-01T06:45:36;100248.47;;;18.56;87.85
71299;BME280;59083;47.974;21.722;2022-08-01T06:48:37;100245.59;;;18.63;88.06
71299;BME280;59083;47.974;21.722;2022-08-01T06:51:40;100254.03;;;18.67;87.57
71299;BME280;59083;47.974;21.722;2022-08-01T06:54:41;100245.53;;;18.75;87.03
71299;BME280;59083;47.974;21.722;2022-08-01T06:57:50;100246.19;;;18.82;86.13
71299;BME280;59083;47.974;21.722;2022-08-01T07:00:52;100244.81;;;18.96;86.63
71299;BME280;59083;47.974;21.722;2022-08-01T07:03:53;100250.37;;;19.06;86.40
71299;BME280;59083;47.974;21.722;2022-08-01T07:06:56;100238.75;;;19.22;85.73
71299;BME280;59083;47.974;21.722;2022-08-01T07:09:57;100250.81;;;19.36;85.07
71299;BME280;59083;47.974;21.722;2022-08-01T07:12:59;100255.09;;;19.49;84.62
71299;BME280;59083;47.974;21.722;2022-08-01T07:16:00;100259.84;;;19.59;84.38
71299;BME280;59083;47.974;21.722;2022-08-01T07:19:02;100256.56;;;19.57;83.73
71299;BME280;59083;47.974;21.722;2022-08-01T07:22:03;100254.28;;;19.49;83.63
71299;BME280;59083;47.974;21.722;2022-08-01T07:25:05;100255.50;;;19.41;84.38
71299;BME280;59083;47.974;21.722;2022-08-01T07:28:07;100255.44;;;19.36;84.69
71299;BME280;59083;47.974;21.722;2022-08-01T07:31:08;100254.69;;;19.40;84.61
71299;BME280;59083;47.974;21.722;2022-08-01T07:34:09;100255.38;;;19.48;84.91
71299;BME280;59083;47.974;21.722;2022-08-01T07:37:11;100253.09;;;19.61;84.45
71299;BME280;59083;47.974;21.722;2022-08-01T07:40:12;100260.09;;;19.57;84.05
71299;BME280;59083;47.974;21.722;2022-08-01T07:43:14;100259.03;;;19.58;84.19
71299;BME280;59083;47.974;21.722;2022-08-01T07:46:15;100254.56;;;19.69;84.42
71299;BME280;59083;47.974;21.722;2022-08-01T07:49:17;100247.09;;;19.76;84.01
71299;BME280;59083;47.974;21.722;2022-08-01T07:52:18;100243.87;;;19.79;83.11
71299;BME280;59083;47.974;21.722;2022-08-01T07:55:19;100237.78;;;19.89;83.39
71299;BME280;59083;47.974;21.722;2022-08-01T07:58:20;100240.87;;;19.97;81.94
71299;BME280;59083;47.974;21.722;2022-08-01T08:01:22;100249.66;;;20.09;81.83
71299;BME280;59083;47.974;21.722;2022-08-01T08:04:23;100253.19;;;19.88;82.31
71299;BME280;59083;47.974;21.722;2022-08-01T08:07:25;100248.53;;;20.05;82.40
71299;BME280;59083;47.974;21.722;2022-08-01T08:10:26;100254.44;;;20.02;82.24
71299;BME280;59083;47.974;21.722;2022-08-01T08:13:27;100256.59;;;20.00;81.90
71299;BME280;59083;47.974;21.722;2022-08-01T08:16:29;100266.28;;;19.96;82.68
71299;BME280;59083;47.974;21.722;2022-08-01T08:19:30;100260.50;;;20.09;82.63
71299;BME280;59083;47.974;21.722;2022-08-01T08:22:34;100256.31;;;20.23;81.40
71299;BME280;59083;47.974;21.722;2022-08-01T08:25:35;100260.25;;;20.33;80.56
71299;BME280;59083;47.974;21.722;2022-08-01T08:28:37;100254.03;;;20.32;80.66
71299;BME280;59083;47.974;21.722;2022-08-01T08:31:38;100252.94;;;20.33;79.75
71299;BME280;59083;47.974;21.722;2022-08-01T08:34:40;100259.81;;;20.46;78.72
71299;BME280;59083;47.974;21.722;2022-08-01T08:37:41;100267.03;;;20.62;79.09
71299;BME280;59083;47.974;21.722;2022-08-01T08:40:42;100265.09;;;20.84;77.61
71299;BME280;59083;47.974;21.722;2022-08-01T08:43:43;100256.56;;;21.02;76.94
71299;BME280;59083;47.974;21.722;2022-08-01T08:46:47;100266.09;;;21.10;76.91
71299;BME280;59083;47.974;21.722;2022-08-01T08:49:51;100260.66;;;21.05;75.86
71299;BME280;59083;47.974;21.722;2022-08-01T08:52:54;100261.50;;;21.11;76.32
71299;BME280;59083;47.974;21.722;2022-08-01T08:55:57;100269.06;;;21.09;75.60
71299;BME280;59083;47.974;21.722;2022-08-01T08:58:58;100270.00;;;21.19;75.78
71299;BME280;59083;47.974;21.722;2022-08-01T09:02:00;100260.41;;;21.07;75.37
71299;BME280;59083;47.974;21.722;2022-08-01T09:05:01;100264.69;;;21.02;75.67
71299;BME280;59083;47.974;21.722;2022-08-01T09:08:06;100273.41;;;21.10;75.57
71299;BME280;59083;47.974;21.722;2022-08-01T09:11:08;100268.06;;;21.15;75.27
71299;BME280;59083;47.974;21.722;2022-08-01T09:14:17;100268.44;;;21.28;74.55
71299;BME280;59083;47.974;21.722;2022-08-01T09:17:24;100273.69;;;21.40;73.33
71299;BME280;59083;47.974;21.722;2022-08-01T09:20:25;100271.81;;;21.14;72.29
71299;BME280;59083;47.974;21.722;2022-08-01T09:23:38;100271.47;;;21.37;71.18
71299;BME280;59083;47.974;21.722;2022-08-01T09:26:40;100276.72;;;21.54;71.13
71299;BME280;59083;47.974;21.722;2022-08-01T09:29:42;100276.88;;;21.74;71.74
71299;BME280;59083;47.974;21.722;2022-08-01T09:32:59;100277.19;;;21.87;69.02
71299;BME280;59083;47.974;21.722;2022-08-01T09:36:01;100276.09;;;21.83;69.56
71299;BME280;59083;47.974;21.722;2022-08-01T09:39:12;100274.16;;;21.74;68.83
71299;BME280;59083;47.974;21.722;2022-08-01T09:45:33;100273.00;;;22.12;68.48
71299;BME280;59083;47.974;21.722;2022-08-01T09:48:35;100277.16;;;22.45;67.17
71299;BME280;59083;47.974;21.722;2022-08-01T09:51:38;100265.03;;;23.28;63.99
71299;BME280;59083;47.974;21.722;2022-08-01T09:54:42;100265.53;;;23.45;62.99
71299;BME280;59083;47.974;21.722;2022-08-01T09:57:54;100271.53;;;23.58;63.16
71299;BME280;59083;47.974;21.722;2022-08-01T10:00:59;100267.47;;;23.50;62.24
71299;BME280;59083;47.974;21.722;2022-08-01T10:07:16;100281.31;;;23.48;62.43
71299;BME280;59083;47.974;21.722;2022-08-01T10:10:17;100281.31;;;23.33;63.29
71299;BME280;59083;47.974;21.722;2022-08-01T10:13:19;100278.63;;;23.03;64.44
71299;BME280;59083;47.974;21.722;2022-08-01T10:16:20;100277.81;;;22.92;64.54
71299;BME280;59083;47.974;21.722;2022-08-01T10:19:24;100278.09;;;23.11;64.39
71299;BME280;59083;47.974;21.722;2022-08-01T10:22:26;100280.25;;;23.14;64.29
71299;BME280;59083;47.974;21.722;2022-08-01T10:25:31;100276.44;;;23.15;63.89
71299;BME280;59083;47.974;21.722;2022-08-01T10:28:35;100269.81;;;23.77;64.01
71299;BME280;59083;47.974;21.722;2022-08-01T10:31:40;100279.50;;;24.18;60.94
71299;BME280;59083;47.974;21.722;2022-08-01T10:34:42;100278.13;;;24.11;60.63
71299;BME280;59083;47.974;21.722;2022-08-01T10:37:45;100278.47;;;23.94;62.07
71299;BME280;59083;47.974;21.722;2022-08-01T10:40:52;100268.69;;;23.88;62.36
71299;BME280;59083;47.974;21.722;2022-08-01T10:43:55;100272.50;;;23.97;61.31
71299;BME280;59083;47.974;21.722;2022-08-01T10:47:12;100272.72;;;24.06;62.29
71299;BME280;59083;47.974;21.722;2022-08-01T10:50:19;100261.66;;;24.41;61.83
71299;BME280;59083;47.974;21.722;2022-08-01T10:53:26;100265.41;;;24.50;60.30
71299;BME280;59083;47.974;21.722;2022-08-01T10:56:40;100268.16;;;24.94;60.33
71299;BME280;59083;47.974;21.722;2022-08-01T10:59:51;100261.06;;;24.49;60.50
71299;BME280;59083;47.974;21.722;2022-08-01T11:03:00;100267.81;;;24.08;62.05
71299;BME280;59083;47.974;21.722;2022-08-01T11:06:03;100268.25;;;23.61;62.42
71299;BME280;59083;47.974;21.722;2022-08-01T11:12:17;100274.81;;;22.99;64.40
71299;BME280;59083;47.974;21.722;2022-08-01T11:15:20;100274.28;;;22.92;63.94
71299;BME280;59083;47.974;21.722;2022-08-01T11:18:29;100268.56;;;22.93;64.44
71299;BME280;59083;47.974;21.722;2022-08-01T11:24:54;100267.19;;;23.16;65.84
71299;BME280;59083;47.974;21.722;2022-08-01T11:34:54;100266.12;;;22.92;64.81
71299;BME280;59083;47.974;21.722;2022-08-01T11:38:24;100265.03;;;23.03;64.92
71299;BME280;59083;47.974;21.722;2022-08-01T11:41:30;100262.81;;;23.30;63.29
71299;BME280;59083;47.974;21.722;2022-08-01T11:44:50;100261.66;;;23.77;62.35
71299;BME280;59083;47.974;21.722;2022-08-01T11:47:52;100256.09;;;24.07;61.64
71299;BME280;59083;47.974;21.722;2022-08-01T11:50:55;100248.50;;;23.99;60.66
71299;BME280;59083;47.974;21.722;2022-08-01T11:53:56;100249.81;;;24.12;59.97
71299;BME280;59083;47.974;21.722;2022-08-01T11:57:02;100243.25;;;24.23;59.91
71299;BME280;59083;47.974;21.722;2022-08-01T12:00:10;100249.22;;;24.30;59.25
71299;BME280;59083;47.974;21.722;2022-08-01T12:03:12;100245.69;;;24.24;59.08
71299;BME280;59083;47.974;21.722;2022-08-01T12:06:26;100242.91;;;24.35;59.56
71299;BME280;59083;47.974;21.722;2022-08-01T12:09:27;100241.88;;;24.25;59.22
71299;BME280;59083;47.974;21.722;2022-08-01T12:12:30;100233.19;;;24.13;59.78
71299;BME280;59083;47.974;21.722;2022-08-01T12:15:36;100231.53;;;24.22;59.89
71299;BME280;59083;47.974;21.722;2022-08-01T12:18:42;100231.53;;;24.17;60.54
71299;BME280;59083;47.974;21.722;2022-08-01T12:21:43;100231.59;;;24.07;60.16
71299;BME280;59083;47.974;21.722;2022-08-01T12:24:45;100229.75;;;23.87;60.09
71299;BME280;59083;47.974;21.722;2022-08-01T12:27:47;100229.56;;;23.74;60.28
71299;BME280;59083;47.974;21.722;2022-08-01T12:30:49;100231.16;;;23.85;60.73
71299;BME280;59083;47.974;21.722;2022-08-01T12:33:50;100225.97;;;23.88;60.83
71299;BME280;59083;47.974;21.722;2022-08-01T12:36:51;100232.72;;;24.01;60.10
71299;BME280;59083;47.974;21.722;2022-08-01T12:39:53;100224.63;;;23.86;60.10
71299;BME280;59083;47.974;21.722;2022-08-01T12:42:59;100226.28;;;23.77;58.52
71299;BME280;59083;47.974;21.722;2022-08-01T12:46:01;100223.34;;;23.58;58.87
71299;BME280;59083;47.974;21.722;2022-08-01T12:49:02;100213.84;;;23.56;59.33
71299;BME280;59083;47.974;21.722;2022-08-01T12:52:04;100227.88;;;23.83;59.77
71299;BME280;59083;47.974;21.722;2022-08-01T12:55:08;100231.69;;;23.82;59.91
71299;BME280;59083;47.974;21.722;2022-08-01T12:58:11;100227.03;;;23.87;59.97
71299;BME280;59083;47.974;21.722;2022-08-01T13:01:13;100230.03;;;23.91;60.09
71299;BME280;59083;47.974;21.722;2022-08-01T13:04:14;100221.56;;;23.93;59.78
71299;BME280;59083;47.974;21.722;2022-08-01T13:07:16;100229.38;;;24.14;59.75
71299;BME280;59083;47.974;21.722;2022-08-01T13:10:28;100227.69;;;24.28;59.45
71299;BME280;59083;47.974;21.722;2022-08-01T13:13:40;100222.63;;;24.51;58.56
71299;BME280;59083;47.974;21.722;2022-08-01T13:16:46;100227.63;;;24.39;58.75
71299;BME280;59083;47.974;21.722;2022-08-01T13:19:48;100232.69;;;24.06;58.74
71299;BME280;59083;47.974;21.722;2022-08-01T13:22:50;100226.78;;;23.89;60.05
71299;BME280;59083;47.974;21.722;2022-08-01T13:25:55;100236.56;;;23.95;60.13
71299;BME280;59083;47.974;21.722;2022-08-01T13:29:07;100235.09;;;24.18;59.28
71299;BME280;59083;47.974;21.722;2022-08-01T13:32:16;100234.25;;;24.17;59.15
71299;BME280;59083;47.974;21.722;2022-08-01T13:35:20;100235.34;;;24.21;59.86
71299;BME280;59083;47.974;21.722;2022-08-01T13:38:22;100249.50;;;24.23;60.05
71299;BME280;59083;47.974;21.722;2022-08-01T13:41:53;100253.34;;;24.12;60.27
71299;BME280;59083;47.974;21.722;2022-08-01T13:44:54;100240.94;;;23.91;60.48
71299;BME280;59083;47.974;21.722;2022-08-01T13:47:55;100243.69;;;23.86;60.96
71299;BME280;59083;47.974;21.722;2022-08-01T13:50:57;100242.03;;;23.85;60.50
71299;BME280;59083;47.974;21.722;2022-08-01T13:53:58;100245.28;;;23.87;61.13
71299;BME280;59083;47.974;21.722;2022-08-01T13:56:59;100231.16;;;23.85;60.41
71299;BME280;59083;47.974;21.722;2022-08-01T14:00:00;100228.13;;;23.97;60.65
71299;BME280;59083;47.974;21.722;2022-08-01T14:03:02;100225.06;;;24.08;60.93
71299;BME280;59083;47.974;21.722;2022-08-01T14:06:04;100220.09;;;24.15;59.66
71299;BME280;59083;47.974;21.722;2022-08-01T14:09:05;100225.03;;;24.18;60.18
71299;BME280;59083;47.974;21.722;2022-08-01T14:12:07;100233.25;;;24.03;60.16
71299;BME280;59083;47.974;21.722;2022-08-01T14:15:08;100231.62;;;24.02;58.98
71299;BME280;59083;47.974;21.722;2022-08-01T14:18:10;100220.44;;;24.09;58.92
71299;BME280;59083;47.974;21.722;2022-08-01T14:21:11;100212.22;;;24.19;59.92
71299;BME280;59083;47.974;21.722;2022-08-01T14:24:12;100214.19;;;24.03;56.92
71299;BME280;59083;47.974;21.722;2022-08-01T14:27:14;100219.63;;;23.98;57.45
71299;BME280;59083;47.974;21.722;2022-08-01T14:30:15;100213.94;;;23.95;57.50
71299;BME280;59083;47.974;21.722;2022-08-01T14:33:16;100220.97;;;24.06;58.13
71299;BME280;59083;47.974;21.722;2022-08-01T14:36:18;100220.22;;;23.95;54.84
71299;BME280;59083;47.974;21.722;2022-08-01T14:39:19;100215.59;;;23.96;53.91
71299;BME280;59083;47.974;21.722;2022-08-01T14:42:20;100222.91;;;24.00;52.71
71299;BME280;59083;47.974;21.722;2022-08-01T14:45:21;100219.63;;;23.98;51.84
71299;BME280;59083;47.974;21.722;2022-08-01T14:48:23;100222.34;;;24.08;52.54
71299;BME280;59083;47.974;21.722;2022-08-01T14:51:24;100216.03;;;24.13;52.25
71299;BME280;59083;47.974;21.722;2022-08-01T14:54:25;100216.84;;;24.13;52.20
71299;BME280;59083;47.974;21.722;2022-08-01T15:00:28;100221.03;;;24.45;48.96
71299;BME280;59083;47.974;21.722;2022-08-01T15:03:29;100228.69;;;24.43;49.68
71299;BME280;59083;47.974;21.722;2022-08-01T15:06:30;100215.03;;;24.48;51.25
71299;BME280;59083;47.974;21.722;2022-08-01T15:09:31;100217.84;;;24.38;50.23
71299;BME280;59083;47.974;21.722;2022-08-01T15:12:33;100221.16;;;24.29;50.78
71299;BME280;59083;47.974;21.722;2022-08-01T15:15:35;100217.41;;;24.20;47.31
71299;BME280;59083;47.974;21.722;2022-08-01T15:18:36;100218.19;;;24.21;47.28
71299;BME280;59083;47.974;21.722;2022-08-01T15:21:37;100211.94;;;24.20;46.47
71299;BME280;59083;47.974;21.722;2022-08-01T15:24:39;100218.19;;;24.16;47.18
71299;BME280;59083;47.974;21.722;2022-08-01T15:27:40;100211.41;;;24.13;47.37
71299;BME280;59083;47.974;21.722;2022-08-01T15:30:41;100214.97;;;24.09;46.72
71299;BME280;59083;47.974;21.722;2022-08-01T15:33:42;100214.19;;;24.03;44.80
71299;BME280;59083;47.974;21.722;2022-08-01T15:36:44;100213.66;;;24.01;42.72
71299;BME280;59083;47.974;21.722;2022-08-01T15:39:45;100224.53;;;24.01;41.23
71299;BME280;59083;47.974;21.722;2022-08-01T15:42:47;100228.34;;;24.00;43.24
71299;BME280;59083;47.974;21.722;2022-08-01T15:45:48;100227.03;;;23.98;42.48
71299;BME280;59083;47.974;21.722;2022-08-01T15:48:49;100229.19;;;23.96;43.01
71299;BME280;59083;47.974;21.722;2022-08-01T15:51:51;100233.25;;;24.03;42.30
71299;BME280;59083;47.974;21.722;2022-08-01T15:54:52;100230.84;;;23.97;42.65
71299;BME280;59083;47.974;21.722;2022-08-01T15:57:53;100235.50;;;23.91;42.70
71299;BME280;59083;47.974;21.722;2022-08-01T16:00:54;100234.41;;;23.87;42.60
71299;BME280;59083;47.974;21.722;2022-08-01T16:03:56;100234.97;;;23.84;42.21
71299;BME280;59083;47.974;21.722;2022-08-01T16:06:57;100240.97;;;23.76;43.53
71299;BME280;59083;47.974;21.722;2022-08-01T16:09:59;100245.59;;;23.75;43.48
71299;BME280;59083;47.974;21.722;2022-08-01T16:13:00;100243.19;;;23.69;43.97
71299;BME280;59083;47.974;21.722;2022-08-01T16:16:01;100237.75;;;23.59;44.96
71299;BME280;59083;47.974;21.722;2022-08-01T16:19:04;100242.12;;;23.55;45.71